Waco, Nebraska
Current Conditions -  °F | °C
As of 11:55 PM on Wednesday 28 Jan 2015 (Local Time) from KJYR Reporting Station
Overcast Overcast  
Wind Chill: 33°   Ceiling: 2500
Heat Index: 43°   Visibility: 10mi
Dew Point: 34°   Wind: 26mph
Humidity: 70%   Direction: 350°N
Pressure: 30.03"   Gusts: 35mph
Location:  40.9°N, 97.46°W
Report Text: KJYR 290555Z AUTO 35023G30KT 10SM OVC025 06/01 A3003 RMK AO2
Loading
Personal Weather Stations






























Interactive Weather Map New forecast layout! Learn more

10-Day Weather Forecast

Advertisements
Track Severe Weather on mobile